createdAt,value
2019-01-15T00:00:28.127Z,22.00
2019-01-15T00:01:27.321Z,22.03
2019-01-15T00:02:27.308Z,21.98
2019-01-15T00:03:27.314Z,21.96
2019-01-15T00:04:27.293Z,22.07
2019-01-15T00:05:27.275Z,22.05
2019-01-15T00:06:27.264Z,22.06
2019-01-15T00:07:27.256Z,22.02
2019-01-15T00:08:27.265Z,22.07
2019-01-15T00:09:27.250Z,22.02
2019-01-15T00:10:28.133Z,22.06
2019-01-15T00:11:28.127Z,22.03
2019-01-15T00:12:27.199Z,22.05
2019-01-15T00:13:27.205Z,22.06
2019-01-15T00:14:27.178Z,22.03
2019-01-15T00:15:27.168Z,21.92
2019-01-15T00:16:27.153Z,21.98
2019-01-15T00:17:27.142Z,22.09
2019-01-15T00:18:27.168Z,22.02
2019-01-15T00:19:27.120Z,22.02
2019-01-15T00:20:27.117Z,22.12
2019-01-15T00:21:27.634Z,22.02
2019-01-15T00:22:27.090Z,22.02
2019-01-15T00:23:27.096Z,22.05
2019-01-15T00:24:27.067Z,21.92
2019-01-15T00:25:27.063Z,22.03
2019-01-15T00:26:27.062Z,22.00
2019-01-15T00:27:27.034Z,22.03
2019-01-15T00:28:27.041Z,22.02
2019-01-15T00:29:27.007Z,21.99
2019-01-15T00:30:26.999Z,21.99
2019-01-15T00:31:27.627Z,22.00
2019-01-15T00:32:26.979Z,21.96
2019-01-15T00:33:26.996Z,21.99
2019-01-15T00:34:26.959Z,22.00
2019-01-15T00:35:26.946Z,22.09
2019-01-15T00:36:26.933Z,21.99
2019-01-15T00:37:26.935Z,21.92
2019-01-15T00:38:26.940Z,21.99
2019-01-15T00:39:26.908Z,21.96
2019-01-15T00:40:26.891Z,21.92
2019-01-15T00:41:26.881Z,21.92
2019-01-15T00:42:26.869Z,21.91
2019-01-15T00:43:27.200Z,21.96
2019-01-15T00:44:26.868Z,21.99
2019-01-15T00:45:26.866Z,22.09
2019-01-15T00:46:26.825Z,21.94
2019-01-15T00:47:26.818Z,21.98
2019-01-15T00:48:27.164Z,22.05
2019-01-15T00:49:26.796Z,21.98
2019-01-15T00:50:26.780Z,22.06
2019-01-15T00:51:26.770Z,21.99
2019-01-15T00:52:26.759Z,21.96
2019-01-15T00:53:26.763Z,21.99
2019-01-15T00:54:26.759Z,22.03
2019-01-15T00:55:26.737Z,21.94
2019-01-15T00:56:26.718Z,21.96
2019-01-15T00:57:26.702Z,21.99
2019-01-15T00:58:26.712Z,22.07
2019-01-15T00:59:26.685Z,21.98
2019-01-15T01:00:26.672Z,21.96
2019-01-15T01:01:27.628Z,22.00
2019-01-15T01:02:26.648Z,22.00
2019-01-15T01:03:26.683Z,22.02
2019-01-15T01:04:26.630Z,21.99
2019-01-15T01:05:27.129Z,21.99
2019-01-15T01:06:27.143Z,21.91
2019-01-15T01:07:27.135Z,21.99
2019-01-15T01:08:26.634Z,21.99
2019-01-15T01:09:26.570Z,21.99
2019-01-15T01:10:27.142Z,21.92
2019-01-15T01:11:26.548Z,21.92
2019-01-15T01:12:27.131Z,22.02
2019-01-15T01:13:26.563Z,21.92
2019-01-15T01:14:26.516Z,21.92
2019-01-15T01:15:27.130Z,21.98
2019-01-15T01:16:26.495Z,21.99
2019-01-15T01:17:26.483Z,21.96
2019-01-15T01:18:26.640Z,22.00
2019-01-15T01:19:26.498Z,21.92
2019-01-15T01:20:26.450Z,21.92
2019-01-15T01:21:26.440Z,22.02
2019-01-15T01:22:27.141Z,22.03
2019-01-15T01:23:26.440Z,21.91
2019-01-15T01:24:26.426Z,21.91
2019-01-15T01:25:26.397Z,21.99
2019-01-15T01:26:26.385Z,21.92
2019-01-15T01:27:26.376Z,21.99
2019-01-15T01:28:26.653Z,22.06
2019-01-15T01:29:26.368Z,22.00
2019-01-15T01:30:26.346Z,21.94
2019-01-15T01:31:26.328Z,21.99
2019-01-15T01:32:26.367Z,21.99
2019-01-15T01:33:26.328Z,22.03
2019-01-15T01:34:27.129Z,22.05
2019-01-15T01:35:26.302Z,21.88
2019-01-15T01:36:26.274Z,22.03
2019-01-15T01:37:26.292Z,21.94
2019-01-15T01:38:26.282Z,21.94
2019-01-15T01:39:26.241Z,21.88
2019-01-15T01:40:26.237Z,21.92
2019-01-15T01:41:27.138Z,21.99
2019-01-15T01:42:29.494Z,21.94
2019-01-15T01:43:26.203Z,22.00
2019-01-15T01:44:26.202Z,21.90
2019-01-15T01:45:27.131Z,21.96
2019-01-15T01:46:26.171Z,22.00
2019-01-15T01:47:26.173Z,21.96
2019-01-15T01:48:26.156Z,21.96
2019-01-15T01:49:26.165Z,21.86
2019-01-15T01:50:27.594Z,21.94
2019-01-15T01:51:26.114Z,21.94
2019-01-15T01:52:26.116Z,21.99
2019-01-15T01:53:26.100Z,21.88
2019-01-15T01:54:26.126Z,21.91
2019-01-15T01:55:26.070Z,21.96
2019-01-15T01:56:26.059Z,21.91
2019-01-15T01:57:26.053Z,21.94
2019-01-15T01:58:26.635Z,21.90
2019-01-15T01:59:26.059Z,21.96
2019-01-15T02:00:26.022Z,21.99
2019-01-15T02:01:26.009Z,21.94
2019-01-15T02:02:26.630Z,21.90
2019-01-15T02:03:25.982Z,21.90
2019-01-15T02:04:26.156Z,21.98
2019-01-15T02:05:25.966Z,21.83
2019-01-15T02:06:25.954Z,21.88
2019-01-15T02:07:25.941Z,21.92
2019-01-15T02:08:26.643Z,21.91
2019-01-15T02:09:25.935Z,21.91
2019-01-15T02:10:25.914Z,21.91
2019-01-15T02:11:25.900Z,21.88
2019-01-15T02:12:25.889Z,21.90
2019-01-15T02:13:25.880Z,21.83
2019-01-15T02:14:25.882Z,21.91
2019-01-15T02:15:26.642Z,22.00
2019-01-15T02:16:25.853Z,21.88
2019-01-15T02:17:25.841Z,21.90
2019-01-15T02:18:25.825Z,21.83
2019-01-15T02:19:25.830Z,21.88
2019-01-15T02:20:25.834Z,21.91
2019-01-15T02:21:25.801Z,21.96
2019-01-15T02:22:25.795Z,21.91
2019-01-15T02:23:25.771Z,21.96
2019-01-15T02:24:25.781Z,22.00
2019-01-15T02:25:25.753Z,21.88
2019-01-15T02:26:25.739Z,21.88
2019-01-15T02:27:26.659Z,21.90
2019-01-15T02:28:25.719Z,21.98
2019-01-15T02:29:26.183Z,21.91
2019-01-15T02:30:26.638Z,21.94
2019-01-15T02:31:25.679Z,21.82
2019-01-15T02:32:25.674Z,21.83
2019-01-15T02:33:26.638Z,22.02
2019-01-15T02:34:25.676Z,21.91
2019-01-15T02:35:25.647Z,21.96
2019-01-15T02:36:25.627Z,21.90
2019-01-15T02:37:25.623Z,21.90
2019-01-15T02:38:26.155Z,21.84
2019-01-15T02:39:25.663Z,21.90
2019-01-15T02:40:25.621Z,21.88
2019-01-15T02:41:25.578Z,21.90
2019-01-15T02:42:26.215Z,21.91
2019-01-15T02:43:25.558Z,21.94
2019-01-15T02:44:25.557Z,21.91
2019-01-15T02:45:25.544Z,21.92
2019-01-15T02:46:25.518Z,21.90
2019-01-15T02:47:25.511Z,21.83
2019-01-15T02:48:25.496Z,21.88
2019-01-15T02:49:25.665Z,21.98
2019-01-15T02:50:25.476Z,21.83
2019-01-15T02:51:26.140Z,21.90
2019-01-15T02:52:25.457Z,21.96
2019-01-15T02:53:25.436Z,21.86
2019-01-15T02:54:25.658Z,21.90
2019-01-15T02:55:25.427Z,21.90
2019-01-15T02:56:25.422Z,21.86
2019-01-15T02:57:25.397Z,21.90
2019-01-15T02:58:25.384Z,21.91
2019-01-15T02:59:25.392Z,21.90
2019-01-15T03:00:25.384Z,21.91
2019-01-15T03:01:25.367Z,21.91
2019-01-15T03:02:25.339Z,21.91
2019-01-15T03:03:25.331Z,21.92
2019-01-15T03:04:25.340Z,21.92
2019-01-15T03:05:25.307Z,21.91
2019-01-15T03:06:25.295Z,21.88
2019-01-15T03:07:25.286Z,21.88
2019-01-15T03:08:25.282Z,21.90
2019-01-15T03:09:25.285Z,21.91
2019-01-15T03:10:25.256Z,21.90
2019-01-15T03:11:26.147Z,21.90
2019-01-15T03:12:26.166Z,21.94
2019-01-15T03:13:25.224Z,21.86
2019-01-15T03:14:25.253Z,21.91
2019-01-15T03:15:25.204Z,21.91
2019-01-15T03:16:25.192Z,21.99
2019-01-15T03:17:25.184Z,21.99
2019-01-15T03:18:25.164Z,22.00
2019-01-15T03:19:25.235Z,21.91
2019-01-15T03:20:25.159Z,21.90
2019-01-15T03:21:25.132Z,21.88
2019-01-15T03:22:25.138Z,21.88
2019-01-15T03:23:25.639Z,21.92
2019-01-15T03:24:25.117Z,21.94
2019-01-15T03:25:25.089Z,21.92
2019-01-15T03:26:25.075Z,22.03
2019-01-15T03:27:25.078Z,21.98
2019-01-15T03:28:25.637Z,21.88
2019-01-15T03:29:25.157Z,21.91
2019-01-15T03:30:25.642Z,21.99
2019-01-15T03:31:25.040Z,21.88
2019-01-15T03:32:25.021Z,22.03
2019-01-15T03:33:25.014Z,22.03
2019-01-15T03:34:25.151Z,22.00
2019-01-15T03:35:25.641Z,22.03
2019-01-15T03:36:24.968Z,21.88
2019-01-15T03:37:25.639Z,21.90
2019-01-15T03:38:24.951Z,21.98
2019-01-15T03:39:25.157Z,21.98
2019-01-15T03:40:24.926Z,21.90
2019-01-15T03:41:24.944Z,22.02
2019-01-15T03:42:24.901Z,21.94
2019-01-15T03:43:24.897Z,22.03
2019-01-15T03:44:24.876Z,22.02
2019-01-15T03:45:24.886Z,21.98
2019-01-15T03:46:25.655Z,21.98
2019-01-15T03:47:24.861Z,21.94
2019-01-15T03:48:24.851Z,22.00
2019-01-15T03:49:24.829Z,21.99
2019-01-15T03:50:25.162Z,21.92
2019-01-15T03:51:24.797Z,21.98
2019-01-15T03:52:24.791Z,21.91
2019-01-15T03:53:24.792Z,22.00
2019-01-15T03:54:24.779Z,21.96
2019-01-15T03:55:24.773Z,21.98
2019-01-15T03:56:25.654Z,22.00
2019-01-15T03:57:25.646Z,21.99
2019-01-15T03:58:24.731Z,22.05
2019-01-15T03:59:24.709Z,21.92
2019-01-15T04:00:24.715Z,22.03
2019-01-15T04:01:24.689Z,21.94
2019-01-15T04:02:24.676Z,21.98
2019-01-15T04:03:24.676Z,21.94
2019-01-15T04:04:24.682Z,21.94
2019-01-15T04:05:25.179Z,21.96
2019-01-15T04:06:24.632Z,22.03
2019-01-15T04:07:24.622Z,21.98
2019-01-15T04:08:24.618Z,21.90
2019-01-15T04:09:24.607Z,21.92
2019-01-15T04:10:24.607Z,21.98
2019-01-15T04:11:24.645Z,22.03
2019-01-15T04:12:24.567Z,21.96
2019-01-15T04:13:24.568Z,21.99
2019-01-15T04:14:25.149Z,21.99
2019-01-15T04:15:24.558Z,21.94
2019-01-15T04:16:24.540Z,21.96
2019-01-15T04:17:24.514Z,21.98
2019-01-15T04:18:24.503Z,21.98
2019-01-15T04:19:24.487Z,21.92
2019-01-15T04:20:24.500Z,21.96
2019-01-15T04:21:24.471Z,21.96
2019-01-15T04:22:24.460Z,22.02
2019-01-15T04:23:24.466Z,21.94
2019-01-15T04:24:24.446Z,21.99
2019-01-15T04:25:24.449Z,22.00
2019-01-15T04:26:24.417Z,21.98
2019-01-15T04:27:24.422Z,22.02
2019-01-15T04:28:24.396Z,22.10
2019-01-15T04:29:25.143Z,22.06
2019-01-15T04:30:24.383Z,22.07
2019-01-15T04:31:24.356Z,22.06
2019-01-15T04:32:24.347Z,22.09
2019-01-15T04:33:24.343Z,22.05
2019-01-15T04:34:24.329Z,22.15
2019-01-15T04:35:24.331Z,22.10
2019-01-15T04:36:24.303Z,22.17
2019-01-15T04:37:24.292Z,22.20
2019-01-15T04:38:25.145Z,22.20
2019-01-15T04:39:24.274Z,22.25
2019-01-15T04:40:24.288Z,22.24
2019-01-15T04:41:24.250Z,22.27
2019-01-15T04:42:24.257Z,22.28
2019-01-15T04:43:24.231Z,22.25
2019-01-15T04:44:25.142Z,22.21
2019-01-15T04:45:24.232Z,22.25
2019-01-15T04:46:24.199Z,22.27
2019-01-15T04:47:24.183Z,22.28
2019-01-15T04:48:25.144Z,22.35
2019-01-15T04:49:25.172Z,22.36
2019-01-15T04:50:24.655Z,22.33
2019-01-15T04:51:24.139Z,22.37
2019-01-15T04:52:24.127Z,22.35
2019-01-15T04:53:24.123Z,22.36
2019-01-15T04:54:24.647Z,22.37
2019-01-15T04:55:24.130Z,22.40
2019-01-15T04:56:24.102Z,22.39
2019-01-15T04:57:24.070Z,22.45
2019-01-15T04:58:24.642Z,22.47
2019-01-15T04:59:24.064Z,22.45
2019-01-15T05:00:24.054Z,22.43
2019-01-15T05:01:24.643Z,22.46
2019-01-15T05:02:24.016Z,22.54
2019-01-15T05:03:24.006Z,22.45
2019-01-15T05:04:24.646Z,22.43
2019-01-15T05:05:24.164Z,22.51
2019-01-15T05:06:23.973Z,22.45
2019-01-15T05:07:24.644Z,22.52
2019-01-15T05:08:23.970Z,22.46
2019-01-15T05:09:23.945Z,22.49
2019-01-15T05:10:24.157Z,22.52
2019-01-15T05:11:23.917Z,22.45
2019-01-15T05:12:23.905Z,22.54
2019-01-15T05:13:27.473Z,22.55
2019-01-15T05:14:23.886Z,22.54
2019-01-15T05:15:24.165Z,22.51
2019-01-15T05:16:23.870Z,22.47
2019-01-15T05:17:23.854Z,22.49
2019-01-15T05:18:23.839Z,22.54
2019-01-15T05:19:23.828Z,22.62
2019-01-15T05:20:24.165Z,22.51
2019-01-15T05:21:23.807Z,22.51
2019-01-15T05:22:23.797Z,22.52
2019-01-15T05:23:23.879Z,22.57
2019-01-15T05:24:23.774Z,22.54
2019-01-15T05:25:23.777Z,22.54
2019-01-15T05:26:24.644Z,22.52
2019-01-15T05:27:23.744Z,22.51
2019-01-15T05:28:23.728Z,22.51
2019-01-15T05:29:23.718Z,22.54
2019-01-15T05:30:23.731Z,22.64
2019-01-15T05:31:23.697Z,22.54
2019-01-15T05:32:23.687Z,22.51
2019-01-15T05:33:24.642Z,22.51
2019-01-15T05:34:23.665Z,22.52
2019-01-15T05:35:24.172Z,22.55
2019-01-15T05:36:23.645Z,22.52
2019-01-15T05:37:23.635Z,22.57
2019-01-15T05:38:23.619Z,22.49
2019-01-15T05:39:23.611Z,22.55
2019-01-15T05:40:23.664Z,22.54
2019-01-15T05:41:23.596Z,22.49
2019-01-15T05:42:23.588Z,22.49
2019-01-15T05:43:24.145Z,22.57
2019-01-15T05:44:23.559Z,22.49
2019-01-15T05:45:23.571Z,22.49
2019-01-15T05:46:23.534Z,22.49
2019-01-15T05:47:23.524Z,22.55
2019-01-15T05:48:23.539Z,22.55
2019-01-15T05:49:23.508Z,22.55
2019-01-15T05:50:23.498Z,22.45
2019-01-15T05:51:23.507Z,22.51
2019-01-15T05:52:23.475Z,22.51
2019-01-15T05:53:23.467Z,22.54
2019-01-15T05:54:23.455Z,22.52
2019-01-15T05:55:23.449Z,22.47
2019-01-15T05:56:23.658Z,22.45
2019-01-15T05:57:24.145Z,22.51
2019-01-15T05:58:23.411Z,22.42
2019-01-15T05:59:23.397Z,22.54
2019-01-15T06:00:23.405Z,22.47
2019-01-15T06:01:23.388Z,22.45
2019-01-15T06:02:23.359Z,22.43
2019-01-15T06:03:23.353Z,22.46
2019-01-15T06:04:23.342Z,22.37
2019-01-15T06:05:23.335Z,22.49
2019-01-15T06:06:23.335Z,22.47
2019-01-15T06:07:23.312Z,22.51
2019-01-15T06:08:23.298Z,22.40
2019-01-15T06:09:23.284Z,22.49
2019-01-15T06:10:23.306Z,22.49
2019-01-15T06:11:23.280Z,22.51
2019-01-15T06:12:23.257Z,22.45
2019-01-15T06:13:24.145Z,22.49
2019-01-15T06:14:23.233Z,22.47
2019-01-15T06:15:23.226Z,22.46
2019-01-15T06:16:23.225Z,22.42
2019-01-15T06:17:23.201Z,22.43
2019-01-15T06:18:23.190Z,22.42
2019-01-15T06:19:24.210Z,22.47
2019-01-15T06:20:23.170Z,22.46
2019-01-15T06:21:23.190Z,22.49
2019-01-15T06:22:23.171Z,22.47
2019-01-15T06:23:23.146Z,22.42
2019-01-15T06:24:23.128Z,22.45
2019-01-15T06:25:23.117Z,22.47
2019-01-15T06:26:23.135Z,22.40
2019-01-15T06:27:23.664Z,22.43
2019-01-15T06:28:23.086Z,22.43
2019-01-15T06:29:23.679Z,22.39
2019-01-15T06:30:23.061Z,22.30
2019-01-15T06:31:23.160Z,22.31
2019-01-15T06:32:23.047Z,22.33
2019-01-15T06:33:23.031Z,22.36
2019-01-15T06:34:23.022Z,22.35
2019-01-15T06:35:23.007Z,22.35
2019-01-15T06:36:23.014Z,22.39
2019-01-15T06:37:22.984Z,22.36
2019-01-15T06:38:22.975Z,22.37
2019-01-15T06:39:22.964Z,22.35
2019-01-15T06:40:22.951Z,22.30
2019-01-15T06:41:22.973Z,22.37
2019-01-15T06:42:23.657Z,22.35
2019-01-15T06:43:22.919Z,22.35
2019-01-15T06:44:22.914Z,22.31
2019-01-15T06:45:22.899Z,22.31
2019-01-15T06:46:22.940Z,22.33
2019-01-15T06:47:22.885Z,22.31
2019-01-15T06:48:22.865Z,22.30
2019-01-15T06:49:22.851Z,22.27
2019-01-15T06:50:22.846Z,22.25
2019-01-15T06:51:22.846Z,22.33
2019-01-15T06:52:22.832Z,22.30
2019-01-15T06:53:22.808Z,22.31
2019-01-15T06:54:22.798Z,22.30
2019-01-15T06:55:23.654Z,22.28
2019-01-15T06:56:22.792Z,22.30
2019-01-15T06:57:22.773Z,22.33
2019-01-15T06:58:22.754Z,22.28
2019-01-15T06:59:23.650Z,22.24
2019-01-15T07:00:22.733Z,22.28
2019-01-15T07:01:22.734Z,22.28
2019-01-15T07:02:22.718Z,22.28
2019-01-15T07:03:22.700Z,22.25
2019-01-15T07:04:22.691Z,22.25
2019-01-15T07:05:22.682Z,22.25
2019-01-15T07:06:23.160Z,22.25
2019-01-15T07:07:22.666Z,22.27
2019-01-15T07:08:22.645Z,22.24
2019-01-15T07:09:22.639Z,22.24
2019-01-15T07:10:22.632Z,22.28
2019-01-15T07:11:22.631Z,22.22
2019-01-15T07:12:22.616Z,22.20
2019-01-15T07:13:22.598Z,22.25
2019-01-15T07:14:22.579Z,22.27
2019-01-15T07:15:22.570Z,22.28
2019-01-15T07:16:22.576Z,22.27
2019-01-15T07:17:22.549Z,22.27
2019-01-15T07:18:23.162Z,22.24
2019-01-15T07:19:23.160Z,22.27
2019-01-15T07:20:22.515Z,22.30
2019-01-15T07:21:22.663Z,22.27
2019-01-15T07:22:23.168Z,22.24
2019-01-15T07:23:23.156Z,22.28
2019-01-15T07:24:22.471Z,22.25
2019-01-15T07:25:22.471Z,22.27
2019-01-15T07:26:22.659Z,22.21
2019-01-15T07:27:23.152Z,22.27
2019-01-15T07:28:22.435Z,22.24
2019-01-15T07:29:22.416Z,22.27
2019-01-15T07:30:22.402Z,22.28
2019-01-15T07:31:22.414Z,22.27
2019-01-15T07:32:22.387Z,22.31
2019-01-15T07:33:23.155Z,22.24
2019-01-15T07:34:22.366Z,22.24
2019-01-15T07:35:22.353Z,22.25
2019-01-15T07:36:22.675Z,22.27
2019-01-15T07:37:22.330Z,22.27
2019-01-15T07:38:23.175Z,22.24
2019-01-15T07:39:22.308Z,22.27
2019-01-15T07:40:22.300Z,22.22
2019-01-15T07:41:22.302Z,22.25
2019-01-15T07:42:22.277Z,22.20
2019-01-15T07:43:22.291Z,22.22
2019-01-15T07:44:22.261Z,22.24
2019-01-15T07:45:22.241Z,22.21
2019-01-15T07:46:22.251Z,22.18
2019-01-15T07:47:22.222Z,22.17
2019-01-15T07:48:22.218Z,22.22
2019-01-15T07:49:22.198Z,22.21
2019-01-15T07:50:22.185Z,22.22
2019-01-15T07:51:22.210Z,22.21
2019-01-15T07:52:23.168Z,22.24
2019-01-15T07:53:22.157Z,22.20
2019-01-15T07:54:22.169Z,22.24
2019-01-15T07:55:22.143Z,22.27
2019-01-15T07:56:22.132Z,22.27
2019-01-15T07:57:22.121Z,22.20
2019-01-15T07:58:22.126Z,22.20
2019-01-15T07:59:22.098Z,22.18
2019-01-15T08:00:22.081Z,22.20
2019-01-15T08:01:22.070Z,22.25
2019-01-15T08:02:22.071Z,22.22
2019-01-15T08:03:22.043Z,22.17
2019-01-15T08:04:22.045Z,22.31
2019-01-15T08:05:22.027Z,22.27
2019-01-15T08:06:22.654Z,22.25
2019-01-15T08:07:22.020Z,22.27
2019-01-15T08:08:21.991Z,22.30
2019-01-15T08:09:21.988Z,22.30
2019-01-15T08:10:21.978Z,22.35
2019-01-15T08:11:21.967Z,22.33
2019-01-15T08:12:21.982Z,22.39
2019-01-15T08:13:21.942Z,22.35
2019-01-15T08:14:21.937Z,22.36
2019-01-15T08:15:22.657Z,22.37
2019-01-15T08:16:21.912Z,22.36
2019-01-15T08:17:21.917Z,22.39
2019-01-15T08:18:22.653Z,22.33
2019-01-15T08:19:21.890Z,22.36
2019-01-15T08:20:21.872Z,22.33
2019-01-15T08:21:21.848Z,22.40
2019-01-15T08:22:21.865Z,22.42
2019-01-15T08:23:21.850Z,22.42
2019-01-15T08:24:21.840Z,22.42
2019-01-15T08:25:21.805Z,22.47
2019-01-15T08:26:22.653Z,22.46
2019-01-15T08:27:21.800Z,22.45
2019-01-15T08:28:22.663Z,22.43
2019-01-15T08:29:21.772Z,22.47
2019-01-15T08:30:22.652Z,22.49
2019-01-15T08:31:23.511Z,22.46
2019-01-15T08:32:22.170Z,22.54
2019-01-15T08:33:21.719Z,22.54
2019-01-15T08:34:21.719Z,22.58
2019-01-15T08:35:21.697Z,22.47
2019-01-15T08:36:22.662Z,22.55
2019-01-15T08:37:22.227Z,22.57
2019-01-15T08:38:21.658Z,22.52
2019-01-15T08:39:21.658Z,22.47
2019-01-15T08:40:21.642Z,22.49
2019-01-15T08:41:21.630Z,22.57
2019-01-15T08:42:21.685Z,22.51
2019-01-15T08:43:21.627Z,22.49
2019-01-15T08:44:22.167Z,22.55
2019-01-15T08:45:22.154Z,22.47
2019-01-15T08:46:21.574Z,22.58
2019-01-15T08:47:21.601Z,22.55
2019-01-15T08:48:22.202Z,22.51
2019-01-15T08:49:22.163Z,22.54
2019-01-15T08:50:21.552Z,22.57
2019-01-15T08:51:21.525Z,22.52
2019-01-15T08:52:21.525Z,22.54
2019-01-15T08:53:21.503Z,22.55
2019-01-15T08:54:21.503Z,22.52
2019-01-15T08:55:21.507Z,22.49
2019-01-15T08:56:21.467Z,22.61
2019-01-15T08:57:21.491Z,22.49
2019-01-15T08:58:21.463Z,22.49
2019-01-15T08:59:22.163Z,22.57
2019-01-15T09:00:21.426Z,22.47
2019-01-15T09:01:21.414Z,22.61
2019-01-15T09:02:21.423Z,22.64
2019-01-15T09:03:21.414Z,22.54
2019-01-15T09:04:21.381Z,22.61
2019-01-15T09:05:21.370Z,22.60
2019-01-15T09:06:21.359Z,22.60
2019-01-15T09:07:21.940Z,22.60
2019-01-15T09:08:22.162Z,22.58
2019-01-15T09:09:21.326Z,22.64
2019-01-15T09:10:21.319Z,22.55
2019-01-15T09:11:21.308Z,22.62
2019-01-15T09:12:21.847Z,22.62
2019-01-15T09:13:21.302Z,22.60
2019-01-15T09:14:26.705Z,22.54
2019-01-15T09:15:21.274Z,22.52
2019-01-15T09:16:21.252Z,22.45
2019-01-15T09:17:21.254Z,22.47
2019-01-15T09:18:21.235Z,22.47
2019-01-15T09:19:21.221Z,22.45
2019-01-15T09:20:22.164Z,22.40
2019-01-15T09:21:22.165Z,22.30
2019-01-15T09:22:21.206Z,22.35
2019-01-15T09:23:21.176Z,22.33
2019-01-15T09:24:22.160Z,22.31
2019-01-15T09:25:21.161Z,22.37
2019-01-15T09:26:21.153Z,22.39
2019-01-15T09:27:21.153Z,22.39
2019-01-15T09:28:21.122Z,22.24
2019-01-15T09:29:21.111Z,22.25
2019-01-15T09:30:21.142Z,22.18
2019-01-15T09:31:22.042Z,22.20
2019-01-15T09:32:21.174Z,22.15
2019-01-15T09:33:21.670Z,22.21
2019-01-15T09:34:21.137Z,22.14
2019-01-15T09:35:21.664Z,22.27
2019-01-15T09:36:21.668Z,22.22
2019-01-15T09:37:21.415Z,22.18
2019-01-15T09:38:21.801Z,22.12
2019-01-15T09:39:21.008Z,22.22
2019-01-15T09:40:21.012Z,22.17
2019-01-15T09:41:21.711Z,22.15
2019-01-15T09:42:21.680Z,22.15
2019-01-15T09:43:20.989Z,22.15
2019-01-15T09:44:21.663Z,22.18
2019-01-15T09:45:20.938Z,22.12
2019-01-15T09:46:21.692Z,22.06
2019-01-15T09:47:20.934Z,22.05
2019-01-15T09:48:20.979Z,22.06
2019-01-15T09:49:20.923Z,22.07
2019-01-15T09:50:20.891Z,22.05
2019-01-15T09:51:21.668Z,22.12
2019-01-15T09:52:20.875Z,22.12
2019-01-15T09:53:21.793Z,22.05
2019-01-15T09:54:21.705Z,22.03
2019-01-15T09:55:21.701Z,22.10
2019-01-15T09:56:20.817Z,22.07
2019-01-15T09:57:21.186Z,22.03
2019-01-15T09:58:20.799Z,22.00
2019-01-15T09:59:21.666Z,22.10
2019-01-15T10:00:21.721Z,22.07
2019-01-15T10:01:21.723Z,22.07
2019-01-15T10:02:20.817Z,22.07
2019-01-15T10:03:21.666Z,22.03
2019-01-15T10:04:23.673Z,22.05
2019-01-15T10:05:20.743Z,21.99
2019-01-15T10:06:21.658Z,21.96
2019-01-15T10:07:21.706Z,22.02
2019-01-15T10:08:21.693Z,21.94
2019-01-15T10:09:21.684Z,21.92
2019-01-15T10:10:21.686Z,21.94
2019-01-15T10:11:21.177Z,21.92
2019-01-15T10:12:20.653Z,21.90
2019-01-15T10:13:21.246Z,21.98
2019-01-15T10:14:21.194Z,21.84
2019-01-15T10:15:21.403Z,21.98
2019-01-15T10:16:21.232Z,21.94
2019-01-15T10:17:21.156Z,21.84
2019-01-15T10:18:20.712Z,22.03
2019-01-15T10:19:20.656Z,21.91
2019-01-15T10:20:20.555Z,21.90
2019-01-15T10:21:21.206Z,21.94
2019-01-15T10:22:20.625Z,21.86
2019-01-15T10:23:21.192Z,21.82
2019-01-15T10:24:21.160Z,21.88
2019-01-15T10:25:21.182Z,21.94
2019-01-15T10:26:20.486Z,21.86
2019-01-15T10:27:20.612Z,21.91
2019-01-15T10:28:20.496Z,21.86
2019-01-15T10:29:20.457Z,21.91
2019-01-15T10:30:21.168Z,21.80
2019-01-15T10:31:21.166Z,21.84
2019-01-15T10:32:20.430Z,21.90
2019-01-15T10:33:20.694Z,21.88
2019-01-15T10:34:21.163Z,21.84
2019-01-15T10:35:20.395Z,21.79
2019-01-15T10:36:21.184Z,21.83
2019-01-15T10:37:20.375Z,21.86
2019-01-15T10:38:20.680Z,21.84
2019-01-15T10:39:20.349Z,21.82
2019-01-15T10:40:20.377Z,21.92
2019-01-15T10:41:20.323Z,21.94
2019-01-15T10:42:20.313Z,21.94
2019-01-15T10:43:20.316Z,22.05
2019-01-15T10:44:21.239Z,22.06
2019-01-15T10:45:20.281Z,22.15
2019-01-15T10:46:21.424Z,22.24
2019-01-15T10:47:20.262Z,22.31
2019-01-15T10:48:20.259Z,22.40
2019-01-15T10:49:21.325Z,22.42
2019-01-15T10:50:20.228Z,22.58
2019-01-15T10:51:21.172Z,22.54
2019-01-15T10:52:20.211Z,22.57
2019-01-15T10:53:21.188Z,22.67
2019-01-15T10:54:21.164Z,22.68
2019-01-15T10:55:21.168Z,22.72
2019-01-15T10:56:20.666Z,22.80
2019-01-15T10:57:20.201Z,22.82
2019-01-15T10:58:20.222Z,22.83
2019-01-15T10:59:20.126Z,22.91
2019-01-15T11:00:20.114Z,22.90
2019-01-15T11:01:20.670Z,22.91
2019-01-15T11:02:20.664Z,22.98
2019-01-15T11:03:20.690Z,23.04
2019-01-15T11:04:20.120Z,23.02
2019-01-15T11:05:20.667Z,23.05
2019-01-15T11:06:20.052Z,23.15
2019-01-15T11:07:20.158Z,23.13
2019-01-15T11:08:20.172Z,23.15
2019-01-15T11:09:20.667Z,23.10
2019-01-15T11:10:20.007Z,23.10
2019-01-15T11:11:20.791Z,23.16
2019-01-15T11:12:19.987Z,23.19
2019-01-15T11:13:20.692Z,23.15
2019-01-15T11:14:20.685Z,23.19
2019-01-15T11:15:20.661Z,23.22
2019-01-15T11:16:20.696Z,23.17
2019-01-15T11:17:19.931Z,23.13
2019-01-15T11:18:19.952Z,23.19
2019-01-15T11:19:20.667Z,23.13
2019-01-15T11:20:20.675Z,23.17
2019-01-15T11:21:19.892Z,23.15
2019-01-15T11:22:20.683Z,23.15
2019-01-15T11:23:19.895Z,23.05
2019-01-15T11:24:19.860Z,23.07
2019-01-15T11:25:20.673Z,23.13
2019-01-15T11:26:19.870Z,23.16
2019-01-15T11:27:19.826Z,23.02
2019-01-15T11:28:19.835Z,23.04
2019-01-15T11:29:20.844Z,23.19
2019-01-15T11:30:19.801Z,23.07
2019-01-15T11:31:20.706Z,23.13
2019-01-15T11:32:20.666Z,23.09
2019-01-15T11:33:19.796Z,23.04
2019-01-15T11:34:20.668Z,23.10
2019-01-15T11:35:19.801Z,22.98
2019-01-15T11:36:20.687Z,23.10
2019-01-15T11:37:21.911Z,23.12
2019-01-15T11:38:20.187Z,23.07
2019-01-15T11:39:19.693Z,23.05
2019-01-15T11:40:20.754Z,23.02
2019-01-15T11:41:19.672Z,23.12
2019-01-15T11:42:19.823Z,23.05
2019-01-15T11:43:19.695Z,23.09
2019-01-15T11:44:20.211Z,23.07
2019-01-15T11:45:19.628Z,23.04
2019-01-15T11:46:20.171Z,23.02
2019-01-15T11:47:19.608Z,22.98
2019-01-15T11:48:19.634Z,23.01
2019-01-15T11:49:20.268Z,23.05
2019-01-15T11:50:19.651Z,23.05
2019-01-15T11:51:19.672Z,23.02
2019-01-15T11:52:19.556Z,22.94
2019-01-15T11:53:19.690Z,22.98
2019-01-15T11:54:19.549Z,22.97
2019-01-15T11:55:21.329Z,22.97
2019-01-15T11:56:19.540Z,22.92
2019-01-15T11:57:19.547Z,22.98
2019-01-15T11:58:19.502Z,22.97
2019-01-15T11:59:19.479Z,22.91
2019-01-15T12:00:19.484Z,22.90
2019-01-15T12:01:20.322Z,22.90
2019-01-15T12:02:22.293Z,22.91
2019-01-15T12:03:19.488Z,22.80
2019-01-15T12:04:20.250Z,22.85
2019-01-15T12:05:20.167Z,22.85
2019-01-15T12:06:19.452Z,22.85
2019-01-15T12:07:20.168Z,22.82
2019-01-15T12:08:20.207Z,22.85
2019-01-15T12:09:19.383Z,22.83
2019-01-15T12:10:20.190Z,22.77
2019-01-15T12:11:19.517Z,22.76
2019-01-15T12:12:19.342Z,22.80
2019-01-15T12:13:19.363Z,22.79
2019-01-15T12:14:19.372Z,22.82
2019-01-15T12:15:19.311Z,22.85
2019-01-15T12:16:20.166Z,22.85
2019-01-15T12:17:20.343Z,22.83
2019-01-15T12:18:20.167Z,22.85
2019-01-15T12:19:19.713Z,22.80
2019-01-15T12:20:19.262Z,22.77
2019-01-15T12:21:20.173Z,22.82
2019-01-15T12:22:19.231Z,22.79
2019-01-15T12:23:20.255Z,22.79
2019-01-15T12:24:19.684Z,22.76
2019-01-15T12:25:20.279Z,22.75
2019-01-15T12:26:19.288Z,22.79
2019-01-15T12:27:20.184Z,22.75
2019-01-15T12:28:19.674Z,22.79
2019-01-15T12:29:19.695Z,22.73
2019-01-15T12:30:19.673Z,22.76
2019-01-15T12:31:19.679Z,22.80
2019-01-15T12:32:19.671Z,22.77
2019-01-15T12:33:19.113Z,22.70
2019-01-15T12:34:20.606Z,22.72
2019-01-15T12:35:19.671Z,22.73
2019-01-15T12:36:19.673Z,22.68
2019-01-15T12:37:19.792Z,22.68
2019-01-15T12:38:19.763Z,22.70
2019-01-15T12:39:19.199Z,22.70
2019-01-15T12:40:19.671Z,22.70
2019-01-15T12:41:19.667Z,22.73
2019-01-15T12:42:19.672Z,22.65
2019-01-15T12:43:19.747Z,22.76
2019-01-15T12:44:19.690Z,22.62
2019-01-15T12:45:19.104Z,22.70
2019-01-15T12:46:19.056Z,22.70
2019-01-15T12:47:19.770Z,22.73
2019-01-15T12:48:18.963Z,22.72
2019-01-15T12:49:19.705Z,22.67
2019-01-15T12:50:19.673Z,22.61
2019-01-15T12:51:18.967Z,22.72
2019-01-15T12:52:19.738Z,22.68